createdAt,value
2022-09-23T00:00:42.139Z,8.68
2022-09-23T00:03:09.391Z,8.57
2022-09-23T00:05:36.196Z,8.49
2022-09-23T00:08:02.705Z,8.56
2022-09-23T00:10:31.073Z,8.58
2022-09-23T00:12:59.137Z,8.47
2022-09-23T00:15:26.480Z,8.48
2022-09-23T00:17:53.161Z,8.46
2022-09-23T00:20:20.119Z,8.38
2022-09-23T00:22:46.984Z,8.36
2022-09-23T00:25:13.460Z,8.34
2022-09-23T00:27:40.269Z,8.32
2022-09-23T00:30:08.710Z,8.40
2022-09-23T00:32:36.469Z,8.29
2022-09-23T00:35:04.024Z,8.20
2022-09-23T00:37:31.222Z,8.30
2022-09-23T00:39:59.663Z,8.35
2022-09-23T00:42:26.075Z,8.25
2022-09-23T00:44:55.190Z,8.29
2022-09-23T00:47:23.817Z,8.24
2022-09-23T00:50:25.346Z,8.29
2022-09-23T00:52:53.620Z,8.21
2022-09-23T00:55:27.908Z,8.15
2022-09-23T00:57:57.598Z,8.09
2022-09-23T01:00:24.546Z,8.04
2022-09-23T01:02:51.537Z,7.98
2022-09-23T01:05:18.948Z,7.96
2022-09-23T01:07:46.075Z,8.00
2022-09-23T01:10:15.634Z,8.00
2022-09-23T01:13:08.279Z,7.77
2022-09-23T01:15:50.231Z,7.92
2022-09-23T01:18:28.716Z,7.98
2022-09-23T01:21:16.627Z,8.02
2022-09-23T01:23:55.156Z,7.97
2022-09-23T01:26:42.824Z,8.03
2022-09-23T01:29:25.043Z,7.98
2022-09-23T01:32:38.635Z,7.94
2022-09-23T01:35:30.348Z,7.84
2022-09-23T01:38:16.675Z,7.86
2022-09-23T01:40:52.593Z,7.87
2022-09-23T01:43:53.100Z,7.86
2022-09-23T01:46:29.533Z,7.77
2022-09-23T01:49:20.037Z,7.80
2022-09-23T01:51:53.247Z,7.63
2022-09-23T01:54:38.441Z,7.64
2022-09-23T01:57:25.402Z,7.63
2022-09-23T02:00:05.083Z,7.70
2022-09-23T02:02:49.250Z,7.66
2022-09-23T02:05:30.124Z,7.64
2022-09-23T02:08:08.731Z,7.58
2022-09-23T02:10:44.115Z,7.55
2022-09-23T02:13:20.455Z,7.60
2022-09-23T02:15:52.381Z,7.53
2022-09-23T02:18:26.456Z,7.49
2022-09-23T02:20:58.289Z,7.51
2022-09-23T02:23:48.849Z,7.57
2022-09-23T02:26:22.721Z,7.62
2022-09-23T02:29:21.457Z,7.50
2022-09-23T02:32:17.709Z,7.35
2022-09-23T02:34:50.120Z,7.40
2022-09-23T02:37:31.189Z,7.42
2022-09-23T02:40:09.832Z,7.50
2022-09-23T02:43:05.208Z,7.45
2022-09-23T02:45:31.864Z,7.41
2022-09-23T02:48:04.282Z,7.35
2022-09-23T02:50:32.927Z,7.35
2022-09-23T02:53:00.589Z,7.41
2022-09-23T02:55:32.803Z,7.37
2022-09-23T02:58:03.747Z,7.41
2022-09-23T03:00:50.017Z,7.36
2022-09-23T03:03:36.290Z,7.34
2022-09-23T03:06:15.572Z,7.33
2022-09-23T03:09:07.745Z,7.38
2022-09-23T03:11:39.225Z,7.36
2022-09-23T03:14:26.901Z,7.22
2022-09-23T03:17:03.531Z,7.20
2022-09-23T03:19:42.187Z,7.21
2022-09-23T03:22:12.943Z,7.29
2022-09-23T03:24:44.704Z,7.23
2022-09-23T03:27:17.516Z,7.23
2022-09-23T03:29:47.866Z,7.28
2022-09-23T03:32:20.655Z,7.26
2022-09-23T03:34:50.465Z,7.19
2022-09-23T03:37:39.941Z,7.18
2022-09-23T03:40:23.644Z,7.02
2022-09-23T03:42:51.137Z,7.09
2022-09-23T03:45:23.728Z,7.11
2022-09-23T03:47:50.092Z,7.04
2022-09-23T03:50:19.093Z,6.97
2022-09-23T03:52:46.328Z,7.01
2022-09-23T03:55:12.736Z,7.01
2022-09-23T03:57:39.579Z,7.05
2022-09-23T04:00:07.361Z,7.11
2022-09-23T04:02:40.133Z,7.02
2022-09-23T04:05:07.801Z,7.01
2022-09-23T04:07:34.150Z,7.03
2022-09-23T04:10:00.628Z,7.08
2022-09-23T04:12:26.989Z,6.98
2022-09-23T04:14:53.352Z,6.86
2022-09-23T04:17:19.680Z,7.07
2022-09-23T04:19:46.047Z,6.94
2022-09-23T04:22:12.496Z,6.84
2022-09-23T04:24:38.925Z,7.06
2022-09-23T04:27:05.317Z,6.91
2022-09-23T04:29:31.790Z,6.86
2022-09-23T04:31:58.280Z,6.76
2022-09-23T04:34:24.728Z,6.90
2022-09-23T04:36:51.226Z,6.83
2022-09-23T04:39:17.945Z,6.74
2022-09-23T04:41:45.031Z,6.74
2022-09-23T04:44:12.490Z,6.76
2022-09-23T04:46:40.239Z,6.77
2022-09-23T04:49:07.686Z,6.90
2022-09-23T04:51:34.570Z,6.94
2022-09-23T04:54:00.941Z,6.94
2022-09-23T04:56:32.482Z,6.93
2022-09-23T04:58:58.836Z,6.92
2022-09-23T05:01:28.900Z,6.97
2022-09-23T05:03:57.841Z,6.84
2022-09-23T05:06:25.111Z,6.92
2022-09-23T05:08:54.471Z,6.88
2022-09-23T05:11:21.398Z,6.87
2022-09-23T05:13:48.751Z,6.81
2022-09-23T05:16:15.921Z,6.77
2022-09-23T05:18:43.945Z,6.75
2022-09-23T05:21:12.208Z,6.78
2022-09-23T05:23:40.464Z,6.66
2022-09-23T05:26:11.843Z,6.72
2022-09-23T05:28:39.347Z,6.71
2022-09-23T05:31:05.716Z,6.83
2022-09-23T05:33:33.328Z,6.70
2022-09-23T05:36:00.795Z,6.79
2022-09-23T05:38:31.497Z,6.73
2022-09-23T05:40:59.471Z,6.58
2022-09-23T05:43:26.213Z,6.54
2022-09-23T05:46:07.756Z,6.55
2022-09-23T05:48:35.881Z,6.59
2022-09-23T05:51:03.324Z,6.67
2022-09-23T05:53:30.865Z,6.62
2022-09-23T05:55:57.949Z,6.61
2022-09-23T05:58:24.880Z,6.65
2022-09-23T06:00:51.743Z,6.80
2022-09-23T06:03:20.472Z,6.73
2022-09-23T06:05:48.413Z,6.80
2022-09-23T06:08:15.179Z,6.77
2022-09-23T06:10:44.102Z,6.72
2022-09-23T06:13:10.986Z,6.73
2022-09-23T06:15:38.329Z,6.74
2022-09-23T06:18:06.162Z,6.88
2022-09-23T06:20:34.079Z,6.87
2022-09-23T06:23:07.954Z,6.87
2022-09-23T06:25:38.308Z,6.79
2022-09-23T06:28:07.403Z,6.81
2022-09-23T06:30:34.681Z,6.93
2022-09-23T06:33:01.839Z,6.69
2022-09-23T06:35:28.271Z,6.68
2022-09-23T06:37:54.994Z,6.49
2022-09-23T06:40:24.678Z,6.66
2022-09-23T06:42:58.698Z,6.58
2022-09-23T06:45:25.421Z,6.72
2022-09-23T06:47:56.257Z,6.82
2022-09-23T06:50:26.840Z,6.80
2022-09-23T06:52:55.899Z,6.75
2022-09-23T06:55:27.124Z,6.88
2022-09-23T06:57:54.084Z,6.52
2022-09-23T07:00:21.114Z,6.43
2022-09-23T07:02:47.601Z,6.69
2022-09-23T07:05:16.369Z,6.80
2022-09-23T07:07:46.002Z,6.71
2022-09-23T07:10:12.593Z,6.89
2022-09-23T07:12:39.367Z,6.88
2022-09-23T07:15:06.687Z,6.97
2022-09-23T07:17:33.225Z,7.01
2022-09-23T07:19:59.647Z,7.09
2022-09-23T07:22:26.383Z,7.15
2022-09-23T07:24:55.959Z,7.11
2022-09-23T07:27:27.120Z,7.13
2022-09-23T07:29:54.769Z,7.15
2022-09-23T07:32:22.632Z,7.21
2022-09-23T07:34:49.377Z,7.32
2022-09-23T07:37:17.135Z,7.38
2022-09-23T07:39:44.530Z,7.46
2022-09-23T07:42:12.335Z,7.55
2022-09-23T07:44:39.377Z,7.60
2022-09-23T07:47:06.080Z,7.64
2022-09-23T07:49:35.653Z,7.82
2022-09-23T07:52:02.648Z,7.91
2022-09-23T07:54:29.916Z,8.05
2022-09-23T07:56:56.543Z,8.15
2022-09-23T07:59:23.386Z,8.28
2022-09-23T08:01:52.550Z,8.35
2022-09-23T08:04:22.415Z,8.47
2022-09-23T08:06:51.535Z,8.53
2022-09-23T08:09:19.877Z,8.63
2022-09-23T08:11:46.360Z,8.76
2022-09-23T08:14:14.558Z,8.84
2022-09-23T08:16:42.138Z,8.96
2022-09-23T08:19:09.195Z,9.08
2022-09-23T08:21:37.588Z,9.16
2022-09-23T08:24:04.020Z,9.23
2022-09-23T08:26:32.517Z,9.26
2022-09-23T08:28:58.967Z,9.30
2022-09-23T08:31:25.631Z,9.38
2022-09-23T08:33:56.720Z,9.49
2022-09-23T08:36:24.283Z,9.50
2022-09-23T08:38:50.798Z,9.57
2022-09-23T08:41:29.279Z,9.60
2022-09-23T08:44:04.428Z,9.71
2022-09-23T08:46:37.671Z,9.79
2022-09-23T08:49:07.557Z,9.81
2022-09-23T08:51:41.096Z,9.91
2022-09-23T08:54:11.468Z,9.96
2022-09-23T08:56:38.954Z,10.07
2022-09-23T08:59:13.270Z,10.13
2022-09-23T09:01:56.591Z,10.23
2022-09-23T09:04:27.662Z,10.31
2022-09-23T09:07:35.626Z,10.47
2022-09-23T09:10:19.640Z,10.62
2022-09-23T09:13:13.171Z,10.75
2022-09-23T09:16:01.326Z,10.88
2022-09-23T09:18:31.176Z,11.03
2022-09-23T09:21:11.972Z,11.11
2022-09-23T09:24:00.156Z,11.25
2022-09-23T09:26:29.220Z,11.35
2022-09-23T09:29:33.780Z,11.43
2022-09-23T09:31:59.572Z,11.59
2022-09-23T09:34:33.578Z,11.83
2022-09-23T09:37:08.215Z,11.99
2022-09-23T09:39:36.129Z,12.18
2022-09-23T09:42:04.329Z,12.36
2022-09-23T09:44:50.119Z,12.52
2022-09-23T09:47:35.677Z,12.69
2022-09-23T09:50:11.431Z,12.82
2022-09-23T09:52:40.578Z,12.80
2022-09-23T09:55:12.833Z,12.92
2022-09-23T09:57:44.775Z,13.05
2022-09-23T10:00:34.749Z,13.14
2022-09-23T10:03:04.991Z,13.36
2022-09-23T10:05:46.809Z,13.51
2022-09-23T10:08:36.367Z,13.68
2022-09-23T10:11:17.819Z,13.70
2022-09-23T10:14:00.138Z,13.76
2022-09-23T10:16:28.228Z,13.77
2022-09-23T10:18:56.913Z,13.81
2022-09-23T10:21:27.970Z,13.93
2022-09-23T10:23:57.863Z,13.92
2022-09-23T10:26:33.545Z,13.94
2022-09-23T10:29:30.868Z,13.92
2022-09-23T10:32:30.057Z,13.84
2022-09-23T10:35:14.799Z,13.84
2022-09-23T10:37:59.173Z,13.90
2022-09-23T10:40:57.344Z,13.99
2022-09-23T10:44:00.781Z,14.09
2022-09-23T10:46:38.976Z,14.02
2022-09-23T10:49:17.440Z,14.04
2022-09-23T10:51:43.772Z,14.07
2022-09-23T10:54:36.343Z,14.07
2022-09-23T10:57:41.054Z,14.14
2022-09-23T11:00:37.837Z,14.41
2022-09-23T11:03:20.655Z,14.50
2022-09-23T11:05:59.179Z,14.53
2022-09-23T11:08:48.001Z,14.56
2022-09-23T11:11:34.586Z,14.63
2022-09-23T11:14:16.880Z,14.71
2022-09-23T11:17:14.694Z,14.78
2022-09-23T11:20:02.963Z,14.93
2022-09-23T11:22:54.318Z,15.01
2022-09-23T11:25:31.144Z,15.10
2022-09-23T11:28:17.614Z,15.19
2022-09-23T11:31:01.548Z,15.29
2022-09-23T11:33:44.656Z,15.36
2022-09-23T11:36:28.776Z,15.46
2022-09-23T11:39:00.108Z,15.47
2022-09-23T11:41:46.667Z,15.44
2022-09-23T11:44:19.977Z,15.42
2022-09-23T11:47:05.113Z,15.60
2022-09-23T11:49:40.026Z,15.74
2022-09-23T11:52:22.332Z,15.81
2022-09-23T11:55:22.107Z,15.82
2022-09-23T11:58:22.587Z,15.98
2022-09-23T12:01:01.290Z,16.11
2022-09-23T12:03:55.432Z,16.23
2022-09-23T12:06:26.917Z,16.37
2022-09-23T12:09:03.700Z,16.44
2022-09-23T12:11:58.856Z,16.46
2022-09-23T12:14:59.675Z,16.58
2022-09-23T12:17:49.293Z,16.66
2022-09-23T12:20:28.369Z,16.92
2022-09-23T12:22:57.643Z,16.98
2022-09-23T12:26:07.700Z,16.98
2022-09-23T12:28:41.390Z,16.88
2022-09-23T12:31:14.797Z,16.75
2022-09-23T12:33:50.374Z,16.70
2022-09-23T12:36:25.172Z,16.59
2022-09-23T12:39:05.532Z,16.54
2022-09-23T12:41:42.477Z,16.73
2022-09-23T12:44:14.819Z,17.03
2022-09-23T12:46:43.365Z,17.38
2022-09-23T12:49:25.159Z,17.81
2022-09-23T12:52:28.028Z,18.21
2022-09-23T12:55:02.945Z,18.37
2022-09-23T12:57:35.036Z,18.61
2022-09-23T13:00:12.456Z,18.86
2022-09-23T13:02:47.819Z,18.91
2022-09-23T13:05:40.422Z,19.03
2022-09-23T13:08:16.172Z,19.05
2022-09-23T13:10:55.341Z,19.01
2022-09-23T13:13:31.565Z,18.92
2022-09-23T13:16:21.230Z,18.82
2022-09-23T13:18:57.821Z,18.74
2022-09-23T13:21:42.572Z,18.48
2022-09-23T13:24:31.058Z,18.12
2022-09-23T13:27:11.891Z,17.70
2022-09-23T13:29:44.919Z,17.33
2022-09-23T13:32:14.906Z,16.97
2022-09-23T13:34:44.254Z,16.78
2022-09-23T13:37:25.016Z,16.57
2022-09-23T13:39:51.373Z,16.32
2022-09-23T13:42:29.393Z,16.22
2022-09-23T13:44:58.930Z,16.09
2022-09-23T13:47:28.596Z,16.01
2022-09-23T13:49:55.658Z,15.93
2022-09-23T13:52:26.834Z,15.84
2022-09-23T13:54:53.541Z,15.84
2022-09-23T13:57:30.273Z,15.75
2022-09-23T14:00:01.553Z,15.78
2022-09-23T14:02:30.735Z,15.77
2022-09-23T14:05:01.001Z,15.71
2022-09-23T14:07:27.432Z,15.70
2022-09-23T14:09:55.853Z,15.66
2022-09-23T14:12:22.937Z,15.62
2022-09-23T14:14:51.709Z,15.57
2022-09-23T14:17:21.460Z,15.56
2022-09-23T14:19:48.323Z,15.57
2022-09-23T14:22:26.968Z,15.56
2022-09-23T14:24:55.839Z,15.52
2022-09-23T14:27:33.299Z,15.53
2022-09-23T14:30:02.616Z,15.53
2022-09-23T14:32:30.008Z,15.49
2022-09-23T14:34:59.359Z,15.52
2022-09-23T14:37:56.583Z,15.51
2022-09-23T14:40:34.233Z,15.44
2022-09-23T14:43:16.814Z,15.42
2022-09-23T14:45:50.548Z,15.36
2022-09-23T14:48:22.628Z,15.33
2022-09-23T14:50:54.262Z,15.32
2022-09-23T14:53:23.288Z,15.31
2022-09-23T14:55:53.392Z,15.32
2022-09-23T14:58:25.538Z,15.30
2022-09-23T15:00:54.359Z,15.28
2022-09-23T15:03:21.194Z,15.19
2022-09-23T15:05:50.837Z,15.16
2022-09-23T15:08:22.923Z,15.18
2022-09-23T15:10:50.231Z,15.15
2022-09-23T15:13:20.848Z,15.12
2022-09-23T15:15:47.619Z,15.10
2022-09-23T15:18:25.241Z,15.07
2022-09-23T15:20:54.564Z,15.05
2022-09-23T15:23:46.905Z,15.08
2022-09-23T15:26:18.952Z,15.06
2022-09-23T15:28:46.276Z,15.05
2022-09-23T15:31:18.298Z,15.03
2022-09-23T15:33:46.329Z,15.02
2022-09-23T15:36:21.484Z,15.01
2022-09-23T15:38:48.294Z,14.99
2022-09-23T15:41:15.695Z,14.99
2022-09-23T15:43:42.080Z,14.97
2022-09-23T15:46:16.571Z,14.98
2022-09-23T15:48:53.150Z,14.97
2022-09-23T15:51:23.037Z,14.96
2022-09-23T15:53:50.492Z,14.99
2022-09-23T15:56:17.199Z,15.00
2022-09-23T15:58:43.528Z,15.00
2022-09-23T16:01:20.778Z,14.98
2022-09-23T16:03:47.236Z,14.95
2022-09-23T16:06:13.785Z,14.92
2022-09-23T16:08:42.113Z,14.86
2022-09-23T16:11:20.131Z,14.85
2022-09-23T16:13:46.667Z,14.84
2022-09-23T16:16:13.312Z,14.82
2022-09-23T16:18:42.184Z,14.76
2022-09-23T16:21:12.683Z,14.79
2022-09-23T16:23:43.455Z,14.80
2022-09-23T16:26:22.120Z,14.76
2022-09-23T16:28:49.768Z,14.75
2022-09-23T16:31:17.191Z,14.71
2022-09-23T16:33:45.254Z,14.70
2022-09-23T16:36:23.453Z,14.68
2022-09-23T16:38:50.002Z,14.64
2022-09-23T16:41:16.441Z,14.57
2022-09-23T16:43:42.897Z,14.58
2022-09-23T16:46:12.152Z,14.56
2022-09-23T16:48:40.371Z,14.57
2022-09-23T16:51:15.651Z,14.54
2022-09-23T16:53:42.646Z,14.47
2022-09-23T16:56:10.956Z,14.47
2022-09-23T16:58:38.452Z,14.44
2022-09-23T17:01:25.331Z,14.39
2022-09-23T17:03:51.898Z,14.33
2022-09-23T17:06:19.262Z,14.33
2022-09-23T17:08:48.103Z,14.30
2022-09-23T17:11:16.410Z,14.28
2022-09-23T17:13:44.124Z,14.21
2022-09-23T17:16:20.570Z,14.24
2022-09-23T17:18:46.999Z,14.18
2022-09-23T17:21:13.463Z,14.16
2022-09-23T17:23:39.792Z,14.13
2022-09-23T17:26:09.589Z,14.01
2022-09-23T17:28:36.043Z,13.95
2022-09-23T17:31:04.301Z,13.94
2022-09-23T17:33:32.254Z,13.90
2022-09-23T17:35:59.932Z,13.83
2022-09-23T17:38:29.318Z,13.81
2022-09-23T17:40:58.977Z,13.76
2022-09-23T17:43:25.752Z,13.77
2022-09-23T17:45:54.448Z,13.74
2022-09-23T17:48:22.488Z,13.75
2022-09-23T17:50:55.704Z,13.68
2022-09-23T17:53:22.597Z,13.67
2022-09-23T17:56:05.824Z,13.72
2022-09-23T17:58:36.635Z,13.68
2022-09-23T18:01:04.195Z,13.62
2022-09-23T18:03:31.683Z,13.66
2022-09-23T18:06:19.287Z,13.62
2022-09-23T18:08:47.500Z,13.54
2022-09-23T18:11:16.804Z,13.52
2022-09-23T18:13:51.780Z,13.47
2022-09-23T18:16:19.172Z,13.46
2022-09-23T18:18:53.369Z,13.41
2022-09-23T18:21:21.626Z,13.42
2022-09-23T18:23:50.371Z,13.39
2022-09-23T18:26:24.373Z,13.41
2022-09-23T18:28:53.555Z,13.32
2022-09-23T18:31:20.400Z,13.24
2022-09-23T18:33:51.308Z,13.32
2022-09-23T18:36:21.555Z,13.33
2022-09-23T18:38:48.740Z,13.21
2022-09-23T18:41:15.572Z,13.17
2022-09-23T18:43:47.596Z,13.11
2022-09-23T18:46:17.885Z,13.11
2022-09-23T18:49:03.738Z,13.18
2022-09-23T18:51:32.227Z,13.16
2022-09-23T18:54:00.628Z,13.17
2022-09-23T18:56:37.112Z,13.05
2022-09-23T18:59:08.465Z,13.07
2022-09-23T19:01:35.135Z,13.12
2022-09-23T19:04:02.364Z,13.10
2022-09-23T19:06:31.338Z,13.05
2022-09-23T19:08:58.279Z,13.09
2022-09-23T19:11:25.311Z,13.01
2022-09-23T19:13:54.281Z,13.03
2022-09-23T19:16:22.390Z,12.99
2022-09-23T19:18:49.938Z,12.94
2022-09-23T19:21:20.249Z,12.96
2022-09-23T19:23:49.100Z,12.92
2022-09-23T19:26:19.574Z,12.81
2022-09-23T19:28:54.848Z,12.93
2022-09-23T19:31:24.390Z,12.82
2022-09-23T19:34:02.346Z,12.85
2022-09-23T19:36:30.824Z,12.86
2022-09-23T19:39:02.806Z,12.81
2022-09-23T19:41:33.462Z,12.76
2022-09-23T19:44:03.754Z,12.77
2022-09-23T19:46:32.198Z,12.77
2022-09-23T19:49:00.159Z,12.73
2022-09-23T19:51:27.210Z,12.71
2022-09-23T19:53:53.776Z,12.64
2022-09-23T19:56:20.136Z,12.62
2022-09-23T19:58:48.658Z,12.66
2022-09-23T20:01:16.238Z,12.59
2022-09-23T20:03:46.987Z,12.47
2022-09-23T20:06:14.732Z,12.48
2022-09-23T20:08:41.794Z,12.54
2022-09-23T20:11:11.491Z,12.54
2022-09-23T20:13:43.875Z,12.53
2022-09-23T20:16:13.321Z,12.46
2022-09-23T20:18:39.808Z,12.32
2022-09-23T20:21:07.530Z,12.37
2022-09-23T20:23:34.366Z,12.42
2022-09-23T20:26:21.044Z,12.41
2022-09-23T20:28:47.604Z,12.37
2022-09-23T20:31:15.138Z,12.39
2022-09-23T20:33:42.042Z,12.33
2022-09-23T20:36:09.538Z,12.26
2022-09-23T20:38:36.564Z,12.25
2022-09-23T20:41:03.355Z,12.20
2022-09-23T20:43:32.199Z,12.17
2022-09-23T20:45:58.572Z,12.15
2022-09-23T20:48:25.431Z,12.10
2022-09-23T20:50:51.801Z,12.16
2022-09-23T20:53:19.165Z,12.14
2022-09-23T20:55:53.064Z,12.09
2022-09-23T20:58:19.725Z,12.10
2022-09-23T21:00:46.107Z,11.87
2022-09-23T21:03:13.293Z,11.96
2022-09-23T21:05:41.956Z,12.01
2022-09-23T21:08:08.863Z,11.95
2022-09-23T21:10:35.645Z,11.95
2022-09-23T21:13:04.119Z,11.91
2022-09-23T21:15:32.344Z,11.90
2022-09-23T21:17:59.027Z,11.92
2022-09-23T21:20:25.365Z,11.84
2022-09-23T21:22:51.768Z,11.87
2022-09-23T21:25:33.656Z,11.92
2022-09-23T21:28:01.858Z,11.83
2022-09-23T21:30:28.300Z,11.82
2022-09-23T21:32:55.424Z,11.80
2022-09-23T21:35:22.097Z,11.81
2022-09-23T21:37:48.457Z,11.66
2022-09-23T21:40:33.522Z,11.70
2022-09-23T21:43:00.324Z,11.54
2022-09-23T21:45:27.323Z,11.28
2022-09-23T21:47:54.155Z,11.30
2022-09-23T21:50:20.590Z,11.53
2022-09-23T21:52:51.753Z,11.59
2022-09-23T21:55:18.248Z,11.58
2022-09-23T21:57:45.984Z,11.53
2022-09-23T22:00:12.781Z,11.56
2022-09-23T22:02:39.822Z,11.53
2022-09-23T22:05:07.239Z,11.53
2022-09-23T22:07:38.034Z,11.51
2022-09-23T22:10:05.868Z,11.51
2022-09-23T22:12:33.414Z,11.50
2022-09-23T22:14:59.853Z,11.42
2022-09-23T22:17:26.237Z,11.42
2022-09-23T22:19:52.560Z,11.32
2022-09-23T22:22:18.993Z,11.43
2022-09-23T22:24:47.000Z,11.43
2022-09-23T22:27:17.654Z,11.45
2022-09-23T22:30:02.536Z,11.41
2022-09-23T22:32:40.776Z,11.17
2022-09-23T22:35:12.621Z,11.36
2022-09-23T22:37:39.277Z,11.15
2022-09-23T22:40:13.793Z,11.29
2022-09-23T22:42:41.439Z,11.31
2022-09-23T22:45:09.584Z,11.34
2022-09-23T22:47:38.064Z,11.34
2022-09-23T22:50:09.014Z,11.34
2022-09-23T22:52:36.051Z,11.24
2022-09-23T22:55:03.622Z,11.19
2022-09-23T22:57:29.979Z,11.25
2022-09-23T22:59:56.386Z,11.29
2022-09-23T23:02:23.623Z,11.21
2022-09-23T23:04:50.250Z,11.26
2022-09-23T23:07:20.950Z,11.19
2022-09-23T23:09:50.063Z,11.19
2022-09-23T23:12:16.757Z,11.19
2022-09-23T23:14:43.157Z,11.16
2022-09-23T23:17:09.617Z,11.04
2022-09-23T23:19:37.115Z,11.14
2022-09-23T23:22:04.845Z,11.08
2022-09-23T23:24:31.375Z,11.16
2022-09-23T23:26:57.940Z,11.08
2022-09-23T23:29:24.303Z,10.96
2022-09-23T23:31:50.777Z,10.98
2022-09-23T23:34:19.933Z,11.01
2022-09-23T23:36:47.985Z,11.03
2022-09-23T23:39:14.811Z,11.00
2022-09-23T23:41:41.619Z,11.06
2022-09-23T23:44:09.022Z,11.02
2022-09-23T23:46:37.213Z,11.04
2022-09-23T23:49:04.994Z,11.07
2022-09-23T23:51:31.989Z,11.03
2022-09-23T23:53:59.288Z,10.96
2022-09-23T23:56:26.649Z,10.99
2022-09-23T23:58:55.273Z,10.89
